Greens Farms, Connecticut
Current Conditions -  °F | °C
As of 11:52 AM on Friday 31 Oct 2014 (Local Time) from KBDR Reporting Station
Clear Clear  
Wind Chill: 53°   Ceiling: Unl
Heat Index: 53°   Visibility: 10mi
Dew Point: 41°   Wind: 9mph
Humidity: 64%   Direction: 60°ENE
Pressure: 29.98"   Gusts: NA
Location:  41.12°N, 73.32°W
Report Text: KBDR 311552Z 06008KT 10SM CLR 12/05 A2998 RMK AO2 SLP152 T01170050
Loading
Personal Weather Stations






























Interactive Weather Map
Tropical Storm Tracking
New forecast layout! Learn more

10-Day Weather Forecast

Advertisements
Track Severe Weather on mobile